Time;durP1;ratioP1;P1;durP2;ratioP2;P2;SDS_P1;SDS_P2;PMS_P1;PMS_P2;Temp;Humidity;BMP_temperature;BMP_pressure;BME280_temperature;BME280_humidity;BME280_pressure;Samples;Min_cycle;Max_cycle;Signal;HPM_P1;HPM_P2
2022/01/18 00:01:36;;;;;;;73.85;11.20;;;;;;;;;;5114397;28;20093;-71
2022/01/18 00:04:02;;;;;;;;;;;;;;;;;;5114693;28;20055;-72
2022/01/18 00:06:28;;;;;;;67.13;10.18;;;;;;;;;;5114315;28;19920;-71
2022/01/18 00:08:54;;;;;;;68.32;9.98;;;;;;;;;;5114184;28;20101;-72
2022/01/18 00:11:23;;;;;;;68.97;12.18;;;;;;;;;;5114745;28;20043;-72
2022/01/18 00:13:57;;;;;;;60.85;9.73;;;;;;;;;;5114192;28;20056;-72
2022/01/18 00:16:37;;;;;;;65.25;11.13;;;;;;;;;;5114444;28;20044;-72
2022/01/18 00:19:08;;;;;;;59.78;10.60;;;;;;;;;;5114599;28;20134;-72
2022/01/18 00:22:09;;;;;;;61.05;10.68;;;;;;;;;;5114368;28;20051;-72
2022/01/18 00:24:23;;;;;;;69.95;11.27;;;;;;;;;;5115010;28;20051;-72
2022/01/18 00:26:50;;;;;;;62.88;10.55;;;;;;;;;;5113979;28;20093;-72
2022/01/18 00:29:18;;;;;;;67.60;12.00;;;;;;;;;;5114083;28;20112;-72
2022/01/18 00:32:03;;;;;;;69.22;10.57;;;;;;;;;;5113999;28;20104;-72
2022/01/18 00:34:33;;;;;;;67.45;9.52;;;;;;;;;;5098669;28;20047;-71
2022/01/18 00:37:22;;;;;;;70.45;10.70;;;;;;;;;;5113889;28;20126;-72
2022/01/18 00:39:46;;;;;;;65.60;11.07;;;;;;;;;;5114873;28;20062;-71
2022/01/18 00:42:12;;;;;;;68.18;10.15;;;;;;;;;;5118848;28;20043;-72
2022/01/18 00:44:38;;;;;;;65.57;9.43;;;;;;;;;;5118094;28;20498;-72
2022/01/18 00:47:04;;;;;;;68.03;11.65;;;;;;;;;;5118262;28;20047;-72
2022/01/18 00:49:32;;;;;;;76.13;11.82;;;;;;;;;;5117941;28;20069;-71
2022/01/18 00:52:03;;;;;;;71.78;10.00;;;;;;;;;;5116832;28;20503;-72
2022/01/18 00:54:36;;;;;;;72.93;11.45;;;;;;;;;;5100612;28;20130;-72
2022/01/18 00:57:02;;;;;;;72.80;10.70;;;;;;;;;;5117774;28;20047;-71
2022/01/18 00:59:29;;;;;;;67.60;11.07;;;;;;;;;;5117818;28;20096;-71
2022/01/18 01:01:55;;;;;;;79.35;11.00;;;;;;;;;;5133768;27;20058;-71
2022/01/18 01:04:24;;;;;;;64.30;9.43;;;;;;;;;;5118181;28;20043;-72
2022/01/18 01:06:50;;;;;;;57.05;9.70;;;;;;;;;;5117689;28;20122;-71
2022/01/18 01:09:16;;;;;;;71.15;9.98;;;;;;;;;;5100042;28;20263;-70
2022/01/18 01:11:42;;;;;;;63.50;10.48;;;;;;;;;;5117578;28;20051;-72
2022/01/18 01:14:13;;;;;;;79.35;10.32;;;;;;;;;;5117489;28;20524;-72
2022/01/18 01:16:56;;;;;;;66.20;10.02;;;;;;;;;;5117515;28;20108;-71
2022/01/18 01:45:45;;;;;;;70.28;9.77;;;;;;;;;;5116994;28;20047;-72
2022/01/18 01:48:11;;;;;;;60.92;9.98;;;;;;;;;;5116882;28;20517;-72
2022/01/18 01:50:48;;;;;;;61.60;8.68;;;;;;;;;;5116393;28;20516;-72
2022/01/18 01:53:16;;;;;;;56.42;8.70;;;;;;;;;;5116113;28;20054;-73
2022/01/18 01:55:42;;;;;;;69.85;10.38;;;;;;;;;;5116781;28;20093;-72
2022/01/18 01:58:08;;;;;;;63.45;9.52;;;;;;;;;;5116656;28;20039;-73
2022/01/18 02:00:40;;;;;;;66.05;9.48;;;;;;;;;;5117415;28;20050;-72
2022/01/18 02:03:06;;;;;;;47.70;8.77;;;;;;;;;;5117147;28;20086;-73
2022/01/18 02:05:32;;;;;;;54.35;8.35;;;;;;;;;;5116527;28;20098;-73
2022/01/18 02:07:59;;;;;;;73.75;9.15;;;;;;;;;;5116565;28;20054;-73
2022/01/18 02:10:25;;;;;;;66.95;8.90;;;;;;;;;;5116317;28;20044;-73
2022/01/18 02:12:51;;;;;;;65.38;9.50;;;;;;;;;;5098244;28;20089;-72
2022/01/18 02:15:19;;;;;;;61.30;8.43;;;;;;;;;;5116336;28;20073;-72
2022/01/18 02:23:27;;;;;;;55.15;8.63;;;;;;;;;;5116702;28;20131;-72
2022/01/18 02:25:54;;;;;;;47.35;7.43;;;;;;;;;;5116194;28;20081;-72
2022/01/18 02:28:22;;;;;;;52.33;7.85;;;;;;;;;;5116281;28;20039;-72
2022/01/18 02:30:48;;;;;;;49.38;7.55;;;;;;;;;;5115989;28;20055;-72
2022/01/18 02:33:15;;;;;;;46.97;7.55;;;;;;;;;;5116521;28;20379;-72
2022/01/18 02:35:41;;;;;;;45.70;7.10;;;;;;;;;;5116776;28;20126;-72
2022/01/18 02:38:08;;;;;;;47.72;7.00;;;;;;;;;;5115975;28;20562;-72
2022/01/18 02:40:34;;;;;;;46.03;7.55;;;;;;;;;;5115867;28;20046;-73
2022/01/18 02:43:46;;;;;;;61.70;7.85;;;;;;;;;;5116173;28;20086;-72
2022/01/18 02:45:48;;;;;;;44.00;6.85;;;;;;;;;;5115469;28;20495;-72
2022/01/18 02:48:14;;;;;;;48.85;7.80;;;;;;;;;;5116508;28;20120;-72
2022/01/18 02:50:41;;;;;;;38.40;6.43;;;;;;;;;;5115655;28;20047;-72
2022/01/18 02:53:07;;;;;;;56.97;7.63;;;;;;;;;;5115645;28;20518;-72
2022/01/18 02:55:33;;;;;;;43.58;6.95;;;;;;;;;;5116080;28;20086;-72
2022/01/18 02:58:02;;;;;;;41.15;6.53;;;;;;;;;;5115543;28;20047;-72
2022/01/18 03:00:43;;;;;;;47.38;6.65;;;;;;;;;;5115298;28;20040;-72
2022/01/18 03:03:14;;;;;;;31.23;5.47;;;;;;;;;;5114730;28;20047;-72
2022/01/18 03:05:44;;;;;;;43.13;7.38;;;;;;;;;;5097319;28;20051;-72
2022/01/18 03:08:11;;;;;;;46.88;6.65;;;;;;;;;;5115344;28;20048;-72
2022/01/18 03:10:38;;;;;;;36.58;5.95;;;;;;;;;;5115108;28;20042;-72
2022/01/18 03:13:04;;;;;;;42.20;6.57;;;;;;;;;;5115220;28;20130;-70
2022/01/18 03:15:31;;;;;;;41.63;6.13;;;;;;;;;;5115881;28;20364;-71
2022/01/18 03:17:57;;;;;;;39.88;5.72;;;;;;;;;;5097288;28;20450;-71
2022/01/18 03:20:25;;;;;;;34.30;6.07;;;;;;;;;;5115195;28;20059;-71
2022/01/18 03:22:51;;;;;;;31.23;5.55;;;;;;;;;;5115017;28;20052;-71
2022/01/18 03:25:38;;;;;;;31.85;5.18;;;;;;;;;;5115942;28;20112;-72
2022/01/18 03:28:05;;;;;;;32.55;5.88;;;;;;;;;;5115010;28;20052;-72
2022/01/18 03:30:33;;;;;;;36.13;5.43;;;;;;;;;;5114459;28;20448;-71
2022/01/18 03:32:59;;;;;;;33.08;6.00;;;;;;;;;;5115396;28;20471;-72
2022/01/18 03:35:25;;;;;;;35.83;5.43;;;;;;;;;;5096632;28;20043;-72
2022/01/18 03:37:51;;;;;;;31.55;5.25;;;;;;;;;;5114777;28;20134;-72
2022/01/18 03:40:17;;;;;;;31.40;5.38;;;;;;;;;;5115489;28;20039;-72
2022/01/18 03:42:47;;;;;;;31.60;5.05;;;;;;;;;;5114695;28;20043;-71
2022/01/18 03:45:15;;;;;;;32.28;5.13;;;;;;;;;;5114595;28;20044;-72
2022/01/18 03:47:41;;;;;;;29.20;5.13;;;;;;;;;;5114812;28;20058;-72
2022/01/18 03:50:08;;;;;;;32.42;5.63;;;;;;;;;;5114580;28;20047;-72
2022/01/18 03:52:34;;;;;;;33.15;5.32;;;;;;;;;;5114348;28;20112;-72
2022/01/18 03:55:00;;;;;;;28.48;5.00;;;;;;;;;;5114525;28;20043;-72
2022/01/18 03:57:28;;;;;;;29.70;4.85;;;;;;;;;;5114389;28;20059;-72
2022/01/18 03:59:54;;;;;;;30.92;5.28;;;;;;;;;;5113893;28;20120;-72
2022/01/18 04:02:20;;;;;;;30.92;4.93;;;;;;;;;;5113991;28;20487;-72
2022/01/18 04:04:46;;;;;;;36.35;5.15;;;;;;;;;;5114314;28;20059;-72
2022/01/18 04:07:12;;;;;;;25.70;4.35;;;;;;;;;;5114243;28;20415;-72
2022/01/18 04:09:39;;;;;;;31.85;4.47;;;;;;;;;;5114138;28;20054;-72
2022/01/18 04:12:05;;;;;;;;;;;;;;;;;;5114661;28;20040;-72
2022/01/18 04:14:31;;;;;;;26.52;5.22;;;;;;;;;;5113382;28;20018;-71
2022/01/18 04:17:14;;;;;;;29.50;5.30;;;;;;;;;;5096137;28;20043;-72
2022/01/18 04:27:52;;;;;;;28.33;4.90;;;;;;;;;;5094427;28;20044;-71
2022/01/18 04:30:18;;;;;;;31.60;5.68;;;;;;;;;;5093638;28;20133;-72
2022/01/18 04:32:47;;;;;;;30.58;5.20;;;;;;;;;;5092886;28;20136;-72
2022/01/18 04:35:13;;;;;;;34.67;4.75;;;;;;;;;;5093628;28;20048;-71
2022/01/18 04:37:39;;;;;;;24.13;4.30;;;;;;;;;;5092772;28;20438;-72
2022/01/18 04:40:12;;;;;;;25.52;4.63;;;;;;;;;;5093532;28;20118;-72
2022/01/18 04:43:03;;;;;;;27.73;4.90;;;;;;;;;;5093743;28;20048;-71
2022/01/18 04:48:27;;;;;;;29.73;4.10;;;;;;;;;;5092533;28;20052;-71
2022/01/18 04:50:57;;;;;;;24.27;4.57;;;;;;;;;;5093636;28;20044;-71
2022/01/18 04:53:23;;;;;;;27.02;4.18;;;;;;;;;;5092384;28;20430;-72
2022/01/18 04:55:54;;;;;;;21.55;3.90;;;;;;;;;;5093380;28;20044;-71
2022/01/18 04:58:21;;;;;;;28.15;4.13;;;;;;;;;;5094052;28;20106;-72
2022/01/18 05:00:49;;;;;;;24.83;4.78;;;;;;;;;;5093473;28;20040;-71
2022/01/18 05:03:15;;;;;;;27.50;4.20;;;;;;;;;;5093332;28;20055;-72
2022/01/18 05:05:41;;;;;;;20.90;3.55;;;;;;;;;;5126153;28;20130;-71
2022/01/18 05:08:12;;;;;;;22.55;4.38;;;;;;;;;;5093438;28;20384;-72
2022/01/18 05:10:39;;;;;;;24.75;4.35;;;;;;;;;;5093415;28;20048;-72
2022/01/18 05:13:16;;;;;;;20.90;3.47;;;;;;;;;;5093335;28;20055;-72
2022/01/18 05:15:53;;;;;;;19.33;3.70;;;;;;;;;;5093220;28;20052;-72
2022/01/18 05:21:22;;;;;;;23.60;4.05;;;;;;;;;;5100249;28;20360;-71
2022/01/18 05:23:48;;;;;;;24.25;3.95;;;;;;;;;;5113990;28;20082;-71
2022/01/18 05:26:14;;;;;;;32.20;5.05;;;;;;;;;;5096922;28;20047;-71
2022/01/18 05:28:40;;;;;;;26.73;5.00;;;;;;;;;;5117287;28;20085;-72
2022/01/18 05:31:06;;;;;;;22.92;4.70;;;;;;;;;;5117223;28;20092;-72
2022/01/18 05:33:32;;;;;;;24.23;4.35;;;;;;;;;;5117367;28;20428;-72
2022/01/18 05:35:58;;;;;;;21.98;4.18;;;;;;;;;;5117270;28;20375;-72
2022/01/18 05:38:24;;;;;;;23.70;4.38;;;;;;;;;;5117246;28;20391;-72
2022/01/18 05:40:51;;;;;;;27.42;5.10;;;;;;;;;;5116375;28;20087;-72
2022/01/18 05:43:17;;;;;;;26.02;4.28;;;;;;;;;;5117878;28;20106;-72
2022/01/18 05:45:43;;;;;;;;;;;;;;;;;;5117398;28;20082;-72
2022/01/18 05:48:09;;;;;;;21.55;3.90;;;;;;;;;;5116942;28;19920;-72
2022/01/18 05:50:35;;;;;;;23.95;4.30;;;;;;;;;;5116736;28;20126;-72
2022/01/18 05:53:01;;;;;;;24.02;4.50;;;;;;;;;;5116836;28;20048;-71
2022/01/18 05:55:27;;;;;;;27.58;4.53;;;;;;;;;;5132982;27;20224;-72
2022/01/18 05:57:53;;;;;;;23.92;4.28;;;;;;;;;;5116592;28;20119;-71
2022/01/18 06:00:24;;;;;;;19.98;4.30;;;;;;;;;;5117173;28;20093;-72
2022/01/18 06:08:13;;;;;;;20.98;4.03;;;;;;;;;;5087260;28;20047;-71
2022/01/18 06:10:39;;;;;;;20.45;4.80;;;;;;;;;;5116923;28;20040;-72
2022/01/18 06:13:07;;;;;;;26.67;4.55;;;;;;;;;;5116484;28;20047;-71
2022/01/18 06:15:34;;;;;;;20.75;4.45;;;;;;;;;;5116957;28;20052;-71
2022/01/18 06:18:00;;;;;;;22.58;4.50;;;;;;;;;;5116833;28;20051;-72
2022/01/18 06:20:26;;;;;;;19.40;4.60;;;;;;;;;;5113869;28;20036;-71
2022/01/18 06:22:53;;;;;;;26.45;5.05;;;;;;;;;;5117035;28;20051;-71
2022/01/18 06:25:22;;;;;;;22.52;4.25;;;;;;;;;;5116274;28;20079;-72
2022/01/18 06:27:50;;;;;;;24.33;4.10;;;;;;;;;;5116116;28;20044;-71
2022/01/18 06:30:18;;;;;;;25.65;4.45;;;;;;;;;;5116635;28;20043;-72
2022/01/18 06:32:44;;;;;;;25.27;5.05;;;;;;;;;;5116038;28;20125;-72
2022/01/18 06:35:11;;;;;;;20.08;4.65;;;;;;;;;;5097968;28;20386;-71
2022/01/18 06:37:37;;;;;;;22.17;4.30;;;;;;;;;;5114323;28;20387;-72
2022/01/18 06:40:04;;;;;;;;;;;;;;;;;;5098233;28;20123;-71
2022/01/18 06:42:30;;;;;;;24.23;5.00;;;;;;;;;;5115942;28;19971;-72
2022/01/18 06:44:56;;;;;;;26.38;6.50;;;;;;;;;;5115799;28;20079;-72
2022/01/18 06:47:22;;;;;;;;;;;;;;;;;;5116015;28;20113;-73
2022/01/18 06:49:50;;;;;;;22.08;5.60;;;;;;;;;;5115302;28;19920;-72
2022/01/18 06:52:16;;;;;;;25.25;6.25;;;;;;;;;;5115616;28;20048;-71
2022/01/18 06:54:42;;;;;;;32.30;5.90;;;;;;;;;;5115413;28;20506;-72
2022/01/18 06:57:08;;;;;;;26.45;6.43;;;;;;;;;;5115613;28;20051;-72
2022/01/18 06:59:35;;;;;;;20.95;5.70;;;;;;;;;;5115594;28;20073;-71
2022/01/18 07:02:01;;;;;;;21.05;6.22;;;;;;;;;;5115466;28;20096;-72
2022/01/18 07:04:27;;;;;;;25.02;5.70;;;;;;;;;;5115487;28;20047;-72
2022/01/18 07:06:53;;;;;;;;;;;;;;;;;;5115832;28;20399;-72
2022/01/18 07:09:25;;;;;;;27.60;6.50;;;;;;;;;;5115626;28;19920;-72
2022/01/18 07:11:52;;;;;;;25.30;6.20;;;;;;;;;;5116081;28;20043;-72
2022/01/18 07:14:19;;;;;;;24.52;6.25;;;;;;;;;;5114685;28;20055;-71
2022/01/18 07:16:45;;;;;;;28.25;6.72;;;;;;;;;;5115171;28;20048;-71
2022/01/18 07:19:11;;;;;;;26.58;6.35;;;;;;;;;;5115474;28;20421;-72
2022/01/18 07:21:37;;;;;;;26.83;6.85;;;;;;;;;;5114558;28;20073;-72
2022/01/18 07:24:15;;;;;;;29.20;6.38;;;;;;;;;;5130962;27;20039;-72
2022/01/18 07:26:41;;;;;;;27.95;6.55;;;;;;;;;;5115333;28;20061;-71
2022/01/18 07:29:07;;;;;;;26.02;5.60;;;;;;;;;;5096600;28;20083;-71
2022/01/18 07:31:33;;;;;;;25.42;6.32;;;;;;;;;;5114650;28;20043;-71
2022/01/18 07:33:59;;;;;;;29.25;7.38;;;;;;;;;;5096165;28;20048;-71
2022/01/18 07:36:26;;;;;;;26.73;6.50;;;;;;;;;;5114293;28;20044;-72
2022/01/18 07:38:52;;;;;;;30.83;8.05;;;;;;;;;;5113984;28;20573;-72
2022/01/18 07:41:18;;;;;;;33.30;7.43;;;;;;;;;;5113959;28;20039;-72
2022/01/18 07:43:44;;;;;;;26.67;7.68;;;;;;;;;;5113605;28;20043;-72
2022/01/18 07:46:10;;;;;;;29.52;7.47;;;;;;;;;;5113160;28;20047;-71
2022/01/18 07:48:36;;;;;;;26.63;7.60;;;;;;;;;;5112125;28;20047;-71
2022/01/18 07:51:02;;;;;;;31.48;7.20;;;;;;;;;;5112624;28;20101;-72
2022/01/18 07:53:28;;;;;;;25.13;7.43;;;;;;;;;;5112900;28;20403;-72
2022/01/18 07:55:54;;;;;;;28.15;7.30;;;;;;;;;;5113070;28;20055;-71
2022/01/18 07:58:20;;;;;;;34.42;8.45;;;;;;;;;;5113780;28;20194;-72
2022/01/18 08:00:50;;;;;;;25.33;7.15;;;;;;;;;;5112675;28;20441;-71
2022/01/18 08:03:16;;;;;;;32.08;7.85;;;;;;;;;;5113385;28;20119;-71
2022/01/18 08:05:42;;;;;;;28.13;7.93;;;;;;;;;;5112672;28;20062;-71
2022/01/18 08:08:08;;;;;;;24.02;7.13;;;;;;;;;;5094456;28;20348;-71
2022/01/18 08:10:34;;;;;;;25.45;8.38;;;;;;;;;;5094377;28;20039;-71
2022/01/18 08:13:02;;;;;;;23.20;7.18;;;;;;;;;;5112291;28;20048;-71
2022/01/18 08:15:36;;;;;;;25.10;7.18;;;;;;;;;;5094857;28;20136;-71
2022/01/18 08:18:02;;;;;;;25.80;8.27;;;;;;;;;;5112688;28;20047;-71
2022/01/18 08:20:28;;;;;;;35.70;8.00;;;;;;;;;;5112174;28;20047;-70
2022/01/18 08:22:55;;;;;;;31.33;7.95;;;;;;;;;;5112163;28;20047;-71
2022/01/18 08:25:23;;;;;;;30.63;7.78;;;;;;;;;;5112241;28;20040;-71
2022/01/18 08:27:49;;;;;;;27.85;7.88;;;;;;;;;;5128362;27;20062;-71
2022/01/18 08:30:19;;;;;;;34.88;8.15;;;;;;;;;;5094388;28;20039;-72
2022/01/18 08:32:46;;;;;;;29.85;8.80;;;;;;;;;;5112195;28;20077;-71
2022/01/18 08:35:12;;;;;;;;;;;;;;;;;;5112478;28;20051;-71
2022/01/18 08:37:38;;;;;;;29.40;7.80;;;;;;;;;;5112352;28;19919;-71
2022/01/18 08:40:05;;;;;;;28.95;8.25;;;;;;;;;;5112570;28;20044;-72
2022/01/18 08:42:31;;;;;;;25.02;7.88;;;;;;;;;;5111910;28;20491;-71
2022/01/18 08:44:57;;;;;;;34.78;8.70;;;;;;;;;;5112717;28;20065;-71
2022/01/18 08:47:24;;;;;;;27.52;8.90;;;;;;;;;;5112012;28;20081;-72
2022/01/18 08:49:51;;;;;;;32.63;8.43;;;;;;;;;;5112031;28;20044;-71
2022/01/18 08:52:17;;;;;;;25.58;7.63;;;;;;;;;;5094300;28;20413;-71
2022/01/18 08:54:44;;;;;;;29.48;8.80;;;;;;;;;;5111869;28;20565;-72
2022/01/18 08:57:10;;;;;;;24.73;7.57;;;;;;;;;;5112040;28;20053;-71
2022/01/18 08:59:36;;;;;;;28.05;7.70;;;;;;;;;;5112064;28;20392;-71
2022/01/18 09:02:08;;;;;;;23.77;7.35;;;;;;;;;;5115067;28;20108;-72
2022/01/18 09:04:35;;;;;;;27.08;7.20;;;;;;;;;;5116069;28;20051;-72
2022/01/18 09:07:08;;;;;;;24.77;7.22;;;;;;;;;;5116576;28;20050;-72
2022/01/18 09:09:39;;;;;;;21.90;6.38;;;;;;;;;;5098179;28;20051;-72
2022/01/18 09:12:06;;;;;;;23.35;7.00;;;;;;;;;;5097768;28;20051;-72
2022/01/18 09:14:32;;;;;;;27.58;6.68;;;;;;;;;;5115811;28;20043;-72
2022/01/18 09:16:58;;;;;;;27.45;7.03;;;;;;;;;;5115766;28;20051;-71
2022/01/18 09:19:24;;;;;;;24.00;6.68;;;;;;;;;;5115713;28;20479;-71
2022/01/18 09:21:50;;;;;;;24.92;6.72;;;;;;;;;;5113723;28;20063;-71
2022/01/18 09:24:17;;;;;;;24.25;6.63;;;;;;;;;;5097717;28;20388;-72
2022/01/18 09:26:43;;;;;;;26.20;6.68;;;;;;;;;;5115521;28;20055;-71
2022/01/18 09:29:11;;;;;;;25.00;6.28;;;;;;;;;;5115765;28;20054;-71
2022/01/18 09:31:37;;;;;;;28.67;6.63;;;;;;;;;;5115392;28;20068;-71
2022/01/18 09:34:04;;;;;;;23.05;5.82;;;;;;;;;;5115187;28;20047;-72
2022/01/18 09:36:30;;;;;;;23.05;6.10;;;;;;;;;;5115513;28;20126;-71
2022/01/18 09:38:56;;;;;;;22.20;5.93;;;;;;;;;;5115898;28;20062;-72
2022/01/18 09:41:27;;;;;;;28.75;6.55;;;;;;;;;;5115175;28;20039;-71
2022/01/18 09:43:53;;;;;;;24.48;5.72;;;;;;;;;;5115480;28;20582;-70
2022/01/18 09:46:20;;;;;;;21.25;6.85;;;;;;;;;;5115641;28;20453;-71
2022/01/18 09:48:46;;;;;;;21.13;6.45;;;;;;;;;;5115310;28;20039;-71
2022/01/18 09:51:12;;;;;;;23.52;7.13;;;;;;;;;;5114918;28;20092;-71
2022/01/18 09:53:38;;;;;;;29.27;8.05;;;;;;;;;;5115466;28;20040;-71
2022/01/18 09:56:04;;;;;;;26.55;8.38;;;;;;;;;;5115526;28;20083;-71
2022/01/18 09:58:30;;;;;;;31.00;9.05;;;;;;;;;;5115013;28;20495;-70
2022/01/18 10:00:58;;;;;;;25.10;7.90;;;;;;;;;;5115024;28;20043;-71
2022/01/18 10:03:24;;;;;;;30.85;7.47;;;;;;;;;;5114826;28;20106;-71
2022/01/18 10:05:51;;;;;;;23.48;7.88;;;;;;;;;;5115251;28;20074;-71
2022/01/18 10:08:17;;;;;;;32.60;8.90;;;;;;;;;;5114402;28;20507;-72
2022/01/18 10:10:47;;;;;;;26.10;9.02;;;;;;;;;;5114813;28;20097;-71
2022/01/18 10:13:21;;;;;;;26.75;8.52;;;;;;;;;;5113567;28;20035;-70
2022/01/18 10:16:00;;;;;;;22.60;8.63;;;;;;;;;;5115255;28;20458;-71
2022/01/18 10:18:38;;;;;;;27.15;8.25;;;;;;;;;;5115344;28;20102;-71
2022/01/18 10:21:08;;;;;;;33.22;8.63;;;;;;;;;;5114558;28;20110;-71
2022/01/18 10:23:35;;;;;;;32.53;8.82;;;;;;;;;;5115165;28;20096;-71
2022/01/18 10:26:24;;;;;;;26.95;6.93;;;;;;;;;;5114472;28;20149;-71
2022/01/18 10:29:01;;;;;;;21.58;6.18;;;;;;;;;;5114517;28;20051;-71
2022/01/18 10:31:32;;;;;;;25.70;7.40;;;;;;;;;;5114893;28;20172;-70
2022/01/18 10:34:13;;;;;;;32.13;7.32;;;;;;;;;;5115173;28;20043;-70
2022/01/18 10:36:53;;;;;;;22.85;6.30;;;;;;;;;;5115058;28;20058;-71
2022/01/18 10:39:23;;;;;;;25.13;6.68;;;;;;;;;;5113942;28;20510;-70
2022/01/18 10:41:49;;;;;;;28.95;7.05;;;;;;;;;;5114728;28;20361;-71
2022/01/18 10:44:16;;;;;;;21.90;7.15;;;;;;;;;;5114604;28;20047;-71
2022/01/18 10:46:42;;;;;;;29.33;7.80;;;;;;;;;;5114135;28;20035;-71
2022/01/18 10:49:09;;;;;;;29.92;6.93;;;;;;;;;;5114180;28;20143;-71
2022/01/18 10:51:37;;;;;;;28.65;7.53;;;;;;;;;;5130180;27;20053;-71
2022/01/18 10:54:05;;;;;;;31.73;7.70;;;;;;;;;;5114036;28;20044;-71
2022/01/18 10:56:41;;;;;;;24.92;6.82;;;;;;;;;;5113832;28;20079;-71
2022/01/18 10:59:08;;;;;;;23.67;7.03;;;;;;;;;;5114118;28;20040;-71
2022/01/18 11:01:34;;;;;;;25.33;6.57;;;;;;;;;;5113705;28;20062;-71
2022/01/18 11:04:11;;;;;;;20.42;6.13;;;;;;;;;;5114342;28;20043;-72
2022/01/18 11:06:37;;;;;;;24.63;7.70;;;;;;;;;;5113809;28;20112;-71
2022/01/18 11:09:14;;;;;;;21.77;6.50;;;;;;;;;;5113750;28;20062;-71
2022/01/18 11:11:47;;;;;;;27.02;6.95;;;;;;;;;;5113592;28;20047;-70
2022/01/18 11:14:16;;;;;;;24.23;6.63;;;;;;;;;;5114008;28;20048;-70
2022/01/18 11:16:44;;;;;;;19.27;6.47;;;;;;;;;;5129922;27;20059;-70
2022/01/18 11:19:29;;;;;;;26.13;6.18;;;;;;;;;;5113268;28;20051;-71
2022/01/18 11:21:57;;;;;;;25.35;6.25;;;;;;;;;;5114130;28;20056;-70
2022/01/18 11:24:23;;;;;;;24.48;6.05;;;;;;;;;;5094662;28;20456;-71
2022/01/18 11:26:49;;;;;;;23.73;5.43;;;;;;;;;;5112759;27;20169;-71
2022/01/18 11:29:20;;;;;;;23.85;6.15;;;;;;;;;;5114147;28;20328;-73
2022/01/18 11:31:47;;;;;;;20.95;5.55;;;;;;;;;;5095170;28;20035;-72
2022/01/18 11:34:37;;;;;;;16.20;4.55;;;;;;;;;;5096188;28;20123;-69
2022/01/18 11:37:09;;;;;;;19.60;5.53;;;;;;;;;;5102681;28;20407;-71
2022/01/18 11:39:35;;;;;;;19.83;5.10;;;;;;;;;;5112163;28;20039;-71
2022/01/18 11:42:06;;;;;;;21.15;4.70;;;;;;;;;;5095204;28;20088;-70
2022/01/18 11:44:32;;;;;;;20.55;5.55;;;;;;;;;;5111915;28;20062;-70
2022/01/18 11:46:58;;;;;;;22.38;5.47;;;;;;;;;;5113147;28;20051;-71
2022/01/18 11:49:27;;;;;;;19.17;5.25;;;;;;;;;;5113860;28;20048;-71
2022/01/18 11:51:59;;;;;;;21.23;5.68;;;;;;;;;;5096057;28;20071;-71
2022/01/18 11:57:25;;;;;;;23.48;5.50;;;;;;;;;;5113600;28;20139;-71
2022/01/18 11:59:54;;;;;;;18.58;5.18;;;;;;;;;;5113110;28;20064;-71
2022/01/18 12:02:28;;;;;;;19.23;5.28;;;;;;;;;;5112836;28;20044;-72
2022/01/18 12:04:57;;;;;;;18.13;4.95;;;;;;;;;;5112996;28;20083;-71
2022/01/18 12:07:32;;;;;;;19.55;5.43;;;;;;;;;;5113738;28;20066;-73
2022/01/18 12:09:58;;;;;;;21.15;5.72;;;;;;;;;;5113316;28;20043;-71
2022/01/18 12:12:36;;;;;;;19.60;5.97;;;;;;;;;;5094754;28;20039;-72
2022/01/18 12:15:03;;;;;;;19.15;5.60;;;;;;;;;;5113099;28;20048;-71
2022/01/18 12:17:40;;;;;;;20.23;6.20;;;;;;;;;;5113082;28;20388;-71
2022/01/18 12:20:06;;;;;;;23.67;6.00;;;;;;;;;;5112922;28;20451;-71
2022/01/18 12:23:01;;;;;;;18.88;6.10;;;;;;;;;;5112277;28;20051;-71
2022/01/18 12:25:33;;;;;;;17.75;6.65;;;;;;;;;;5095102;28;20079;-70
2022/01/18 12:28:21;;;;;;;20.00;6.72;;;;;;;;;;5112708;28;20488;-72
2022/01/18 12:31:04;;;;;;;20.33;6.80;;;;;;;;;;5112399;28;20047;-71
2022/01/18 12:33:43;;;;;;;24.60;6.90;;;;;;;;;;5128864;27;20118;-71
2022/01/18 12:36:27;;;;;;;23.77;8.20;;;;;;;;;;5113248;28;20351;-71
2022/01/18 12:38:57;;;;;;;22.05;6.80;;;;;;;;;;5112972;28;20047;-71
2022/01/18 12:41:42;;;;;;;26.33;7.75;;;;;;;;;;5112919;28;20042;-71
2022/01/18 12:44:20;;;;;;;24.15;7.97;;;;;;;;;;5112935;28;20139;-71
2022/01/18 12:47:04;;;;;;;28.08;7.60;;;;;;;;;;5113766;28;20043;-71
2022/01/18 12:49:31;;;;;;;32.45;8.88;;;;;;;;;;5113338;28;20465;-72
2022/01/18 12:51:58;;;;;;;33.28;8.07;;;;;;;;;;5112749;28;20036;-72
2022/01/18 12:54:37;;;;;;;28.35;8.80;;;;;;;;;;5094292;28;20107;-72
2022/01/18 12:57:17;;;;;;;24.33;7.95;;;;;;;;;;5112695;28;20056;-71
2022/01/18 12:59:58;;;;;;;28.30;9.23;;;;;;;;;;5112438;28;20130;-72
2022/01/18 13:02:24;;;;;;;26.08;7.88;;;;;;;;;;5112571;28;20052;-71
2022/01/18 13:04:50;;;;;;;;;;;;;;;;;;5113363;28;20172;-71
2022/01/18 13:07:17;;;;;;;29.25;8.35;;;;;;;;;;5112610;28;19967;-70
2022/01/18 13:09:55;;;;;;;24.42;8.52;;;;;;;;;;5112591;28;20425;-72
2022/01/18 13:12:31;;;;;;;27.70;8.82;;;;;;;;;;5112535;28;20479;-71
2022/01/18 13:15:00;;;;;;;27.42;8.00;;;;;;;;;;5094379;28;20066;-71
2022/01/18 13:23:04;;;;;;;24.60;8.60;;;;;;;;;;5112638;28;20120;-71
2022/01/18 13:25:31;;;;;;;29.55;9.00;;;;;;;;;;5111856;28;20043;-72
2022/01/18 13:28:02;;;;;;;29.73;7.82;;;;;;;;;;5112025;28;20047;-71
2022/01/18 13:30:30;;;;;;;26.27;8.13;;;;;;;;;;5112400;28;20043;-71
2022/01/18 13:33:00;;;;;;;27.63;8.63;;;;;;;;;;5127488;28;20464;-73
2022/01/18 13:35:29;;;;;;;30.10;9.27;;;;;;;;;;5112313;28;20083;-69
2022/01/18 13:38:00;;;;;;;34.20;9.57;;;;;;;;;;5112593;28;20047;-70
2022/01/18 13:40:27;;;;;;;28.05;9.98;;;;;;;;;;5112039;28;20070;-71
2022/01/18 13:43:06;;;;;;;34.10;9.73;;;;;;;;;;5112247;28;20090;-69
2022/01/18 13:45:32;;;;;;;26.60;9.07;;;;;;;;;;5112540;28;20097;-71
2022/01/18 13:47:59;;;;;;;34.88;9.75;;;;;;;;;;5114439;28;20040;-71
2022/01/18 13:50:44;;;;;;;24.15;9.10;;;;;;;;;;5115251;28;20047;-71
2022/01/18 13:53:21;;;;;;;37.95;9.60;;;;;;;;;;5131414;27;20475;-70
2022/01/18 13:55:48;;;;;;;;;;;;;;;;;;5116596;28;20043;-72
2022/01/18 13:58:19;;;;;;;24.15;8.98;;;;;;;;;;5115394;28;19919;-72
2022/01/18 14:00:45;;;;;;;32.95;9.32;;;;;;;;;;5115223;28;20040;-72
2022/01/18 14:03:27;;;;;;;30.13;9.52;;;;;;;;;;5115249;28;20040;-72
2022/01/18 14:05:53;;;;;;;27.52;9.80;;;;;;;;;;5115074;28;20110;-72
2022/01/18 14:08:19;;;;;;;33.05;10.65;;;;;;;;;;5114929;28;20065;-72
2022/01/18 14:10:45;;;;;;;30.60;10.45;;;;;;;;;;5115564;28;20040;-71
2022/01/18 14:13:27;;;;;;;30.17;9.88;;;;;;;;;;5115105;28;20061;-71
2022/01/18 14:15:53;;;;;;;24.20;9.68;;;;;;;;;;5114701;28;20109;-71
2022/01/18 14:18:19;;;;;;;23.98;8.77;;;;;;;;;;5114812;28;20502;-72
2022/01/18 14:20:45;;;;;;;27.85;9.57;;;;;;;;;;5114881;28;20380;-71
2022/01/18 14:23:19;;;;;;;35.95;10.90;;;;;;;;;;5114652;28;20051;-69
2022/01/18 14:25:46;;;;;;;32.58;10.48;;;;;;;;;;5096366;28;20100;-69
2022/01/18 14:28:14;;;;;;;27.48;9.10;;;;;;;;;;5130203;27;20051;-71
2022/01/18 14:30:43;;;;;;;27.52;9.50;;;;;;;;;;5114456;28;20044;-71
2022/01/18 14:33:09;;;;;;;28.92;9.40;;;;;;;;;;5114190;28;20148;-71
2022/01/18 14:35:41;;;;;;;28.75;9.25;;;;;;;;;;5096037;28;20044;-71
2022/01/18 14:38:08;;;;;;;27.70;8.63;;;;;;;;;;5114493;28;20055;-71
2022/01/18 14:40:46;;;;;;;22.55;8.00;;;;;;;;;;5114339;28;20498;-71
2022/01/18 14:43:16;;;;;;;27.70;9.13;;;;;;;;;;5114315;28;20130;-71
2022/01/18 14:46:06;;;;;;;23.75;8.02;;;;;;;;;;5113869;28;20482;-72
2022/01/18 14:48:34;;;;;;;34.72;8.85;;;;;;;;;;5114804;28;20078;-69
2022/01/18 14:51:00;;;;;;;24.38;8.70;;;;;;;;;;5114241;28;20501;-70
2022/01/18 14:53:26;;;;;;;29.98;9.00;;;;;;;;;;5114328;28;20135;-71
2022/01/18 14:55:53;;;;;;;21.70;8.30;;;;;;;;;;5113990;28;20048;-70
2022/01/18 14:58:19;;;;;;;28.73;9.27;;;;;;;;;;5113806;28;20440;-70
2022/01/18 15:00:46;;;;;;;29.30;9.23;;;;;;;;;;5095899;28;20040;-71
2022/01/18 15:03:12;;;;;;;27.92;9.25;;;;;;;;;;5113693;28;20043;-71
2022/01/18 15:05:39;;;;;;;30.23;9.60;;;;;;;;;;5113951;28;20419;-70
2022/01/18 15:08:05;;;;;;;37.85;11.25;;;;;;;;;;5114379;28;20074;-71
2022/01/18 15:10:32;;;;;;;33.10;9.43;;;;;;;;;;5113408;28;20479;-71
2022/01/18 15:12:58;;;;;;;26.48;9.68;;;;;;;;;;5113744;28;20475;-72
2022/01/18 15:15:27;;;;;;;29.17;10.50;;;;;;;;;;5113470;28;20567;-72
2022/01/18 15:17:53;;;;;;;32.03;9.82;;;;;;;;;;5113554;28;20044;-72
2022/01/18 15:20:21;;;;;;;32.40;10.90;;;;;;;;;;5114129;28;20091;-72
2022/01/18 15:22:47;;;;;;;29.05;10.30;;;;;;;;;;5114022;28;20070;-73
2022/01/18 15:25:14;;;;;;;35.45;10.95;;;;;;;;;;5095763;28;20055;-72
2022/01/18 15:27:40;;;;;;;36.45;11.15;;;;;;;;;;5095573;28;20052;-72
2022/01/18 15:30:10;;;;;;;31.38;11.05;;;;;;;;;;5095854;28;20047;-72
2022/01/18 15:32:37;;;;;;;29.75;10.73;;;;;;;;;;5113554;28;20130;-72
2022/01/18 15:35:04;;;;;;;31.50;10.25;;;;;;;;;;5113019;28;20491;-72
2022/01/18 15:37:30;;;;;;;35.17;12.13;;;;;;;;;;5129413;27;20047;-72
2022/01/18 15:40:01;;;;;;;32.17;12.02;;;;;;;;;;5113350;28;20051;-72
2022/01/18 15:42:27;;;;;;;33.40;12.35;;;;;;;;;;5113865;28;20076;-72